sensor_id;sensor_type;location;lat;lon;timestamp;P1;durP1;ratioP1;P2;durP2;ratioP2
40695;SDS011;40425;51.102;17.208;2023-04-01T00:03:23;4.03;;;1.97;;
40695;SDS011;40425;51.102;17.208;2023-04-01T00:08:29;5.57;;;2.70;;
40695;SDS011;40425;51.102;17.208;2023-04-01T00:13:30;6.27;;;2.60;;
40695;SDS011;40425;51.102;17.208;2023-04-01T00:18:32;11.30;;;6.90;;
40695;SDS011;40425;51.102;17.208;2023-04-01T00:23:33;6.43;;;3.53;;
40695;SDS011;40425;51.102;17.208;2023-04-01T00:28:35;6.53;;;3.30;;
40695;SDS011;40425;51.102;17.208;2023-04-01T00:33:36;5.07;;;3.13;;
40695;SDS011;40425;51.102;17.208;2023-04-01T00:38:38;7.43;;;3.43;;
40695;SDS011;40425;51.102;17.208;2023-04-01T00:43:41;4.90;;;3.00;;
40695;SDS011;40425;51.102;17.208;2023-04-01T00:48:44;5.10;;;3.17;;
40695;SDS011;40425;51.102;17.208;2023-04-01T00:53:50;6.57;;;4.17;;
40695;SDS011;40425;51.102;17.208;2023-04-01T00:59:11;7.20;;;4.15;;
40695;SDS011;40425;51.102;17.208;2023-04-01T01:04:26;7.93;;;4.40;;
40695;SDS011;40425;51.102;17.208;2023-04-01T01:09:41;6.90;;;5.55;;
40695;SDS011;40425;51.102;17.208;2023-04-01T01:14:55;8.80;;;4.97;;
40695;SDS011;40425;51.102;17.208;2023-04-01T01:31:12;12.57;;;6.45;;
40695;SDS011;40425;51.102;17.208;2023-04-01T01:36:23;9.10;;;7.13;;
40695;SDS011;40425;51.102;17.208;2023-04-01T01:41:28;7.57;;;6.55;;
40695;SDS011;40425;51.102;17.208;2023-04-01T01:46:30;13.70;;;7.03;;
40695;SDS011;40425;51.102;17.208;2023-04-01T01:51:31;9.35;;;6.57;;
40695;SDS011;40425;51.102;17.208;2023-04-01T01:56:32;7.57;;;6.40;;
40695;SDS011;40425;51.102;17.208;2023-04-01T02:01:37;11.40;;;6.93;;
40695;SDS011;40425;51.102;17.208;2023-04-01T02:06:43;7.50;;;6.28;;
40695;SDS011;40425;51.102;17.208;2023-04-01T02:11:57;9.13;;;6.23;;
40695;SDS011;40425;51.102;17.208;2023-04-01T02:17:02;9.90;;;6.27;;
40695;SDS011;40425;51.102;17.208;2023-04-01T02:22:08;8.48;;;6.85;;
40695;SDS011;40425;51.102;17.208;2023-04-01T02:27:13;9.15;;;6.85;;
40695;SDS011;40425;51.102;17.208;2023-04-01T02:32:14;9.70;;;6.20;;
40695;SDS011;40425;51.102;17.208;2023-04-01T02:37:18;11.52;;;6.60;;
40695;SDS011;40425;51.102;17.208;2023-04-01T02:42:19;7.90;;;6.10;;
40695;SDS011;40425;51.102;17.208;2023-04-01T02:47:20;7.55;;;6.13;;
40695;SDS011;40425;51.102;17.208;2023-04-01T02:52:21;7.63;;;5.43;;
40695;SDS011;40425;51.102;17.208;2023-04-01T02:57:22;7.45;;;5.55;;
40695;SDS011;40425;51.102;17.208;2023-04-01T03:02:24;7.80;;;5.70;;
40695;SDS011;40425;51.102;17.208;2023-04-01T03:07:25;8.07;;;4.93;;
40695;SDS011;40425;51.102;17.208;2023-04-01T03:12:26;5.68;;;4.57;;
40695;SDS011;40425;51.102;17.208;2023-04-01T03:17:27;6.78;;;4.72;;
40695;SDS011;40425;51.102;17.208;2023-04-01T03:22:28;6.35;;;4.50;;
40695;SDS011;40425;51.102;17.208;2023-04-01T03:27:28;5.50;;;4.85;;
40695;SDS011;40425;51.102;17.208;2023-04-01T03:32:29;6.60;;;4.77;;
40695;SDS011;40425;51.102;17.208;2023-04-01T03:37:30;6.30;;;4.38;;
40695;SDS011;40425;51.102;17.208;2023-04-01T03:42:32;6.05;;;3.80;;
40695;SDS011;40425;51.102;17.208;2023-04-01T03:47:33;5.47;;;3.67;;
40695;SDS011;40425;51.102;17.208;2023-04-01T03:52:34;4.90;;;3.42;;
40695;SDS011;40425;51.102;17.208;2023-04-01T03:57:38;6.40;;;3.30;;
40695;SDS011;40425;51.102;17.208;2023-04-01T04:02:39;7.07;;;3.38;;
40695;SDS011;40425;51.102;17.208;2023-04-01T04:07:40;7.22;;;2.97;;
40695;SDS011;40425;51.102;17.208;2023-04-01T04:12:41;4.93;;;3.70;;
40695;SDS011;40425;51.102;17.208;2023-04-01T04:17:42;4.88;;;3.75;;
40695;SDS011;40425;51.102;17.208;2023-04-01T04:22:44;5.70;;;4.67;;
40695;SDS011;40425;51.102;17.208;2023-04-01T04:27:45;5.23;;;3.77;;
40695;SDS011;40425;51.102;17.208;2023-04-01T04:32:46;7.28;;;4.32;;
40695;SDS011;40425;51.102;17.208;2023-04-01T04:37:47;8.20;;;4.40;;
40695;SDS011;40425;51.102;17.208;2023-04-01T04:42:48;4.15;;;3.75;;
40695;SDS011;40425;51.102;17.208;2023-04-01T04:47:49;7.40;;;4.00;;
40695;SDS011;40425;51.102;17.208;2023-04-01T04:52:51;6.37;;;5.47;;
40695;SDS011;40425;51.102;17.208;2023-04-01T04:57:52;9.02;;;3.58;;
40695;SDS011;40425;51.102;17.208;2023-04-01T05:02:53;7.30;;;4.17;;
40695;SDS011;40425;51.102;17.208;2023-04-01T05:07:54;4.70;;;3.10;;
40695;SDS011;40425;51.102;17.208;2023-04-01T05:12:55;5.07;;;3.28;;
40695;SDS011;40425;51.102;17.208;2023-04-01T05:17:56;6.30;;;2.63;;
40695;SDS011;40425;51.102;17.208;2023-04-01T05:22:57;4.20;;;1.57;;
40695;SDS011;40425;51.102;17.208;2023-04-01T05:27:59;4.22;;;1.83;;
40695;SDS011;40425;51.102;17.208;2023-04-01T05:33:00;2.42;;;1.75;;
40695;SDS011;40425;51.102;17.208;2023-04-01T05:38:02;2.13;;;1.90;;
40695;SDS011;40425;51.102;17.208;2023-04-01T05:43:03;5.30;;;2.70;;
40695;SDS011;40425;51.102;17.208;2023-04-01T05:48:04;5.85;;;4.53;;
40695;SDS011;40425;51.102;17.208;2023-04-01T05:53:05;4.47;;;3.25;;
40695;SDS011;40425;51.102;17.208;2023-04-01T05:58:06;7.68;;;4.60;;
40695;SDS011;40425;51.102;17.208;2023-04-01T06:03:07;5.63;;;3.38;;
40695;SDS011;40425;51.102;17.208;2023-04-01T06:08:12;4.95;;;3.35;;
40695;SDS011;40425;51.102;17.208;2023-04-01T06:13:25;7.50;;;4.28;;
40695;SDS011;40425;51.102;17.208;2023-04-01T06:29:00;6.03;;;4.63;;
40695;SDS011;40425;51.102;17.208;2023-04-01T06:34:45;5.68;;;3.70;;
40695;SDS011;40425;51.102;17.208;2023-04-01T06:45:08;7.43;;;3.15;;
40695;SDS011;40425;51.102;17.208;2023-04-01T06:50:24;4.72;;;2.60;;
40695;SDS011;40425;51.102;17.208;2023-04-01T07:00:41;2.80;;;1.90;;
40695;SDS011;40425;51.102;17.208;2023-04-01T07:05:44;4.00;;;1.20;;
40695;SDS011;40425;51.102;17.208;2023-04-01T07:10:47;1.90;;;1.02;;
40695;SDS011;40425;51.102;17.208;2023-04-01T07:16:06;2.35;;;1.15;;
40695;SDS011;40425;51.102;17.208;2023-04-01T07:21:55;4.07;;;1.33;;
40695;SDS011;40425;51.102;17.208;2023-04-01T07:26:39;3.17;;;1.75;;
40695;SDS011;40425;51.102;17.208;2023-04-01T07:31:45;2.90;;;1.80;;
40695;SDS011;40425;51.102;17.208;2023-04-01T07:37:10;11.18;;;6.38;;
40695;SDS011;40425;51.102;17.208;2023-04-01T07:53:40;5.70;;;2.05;;
40695;SDS011;40425;51.102;17.208;2023-04-01T08:04:24;2.63;;;1.55;;
40695;SDS011;40425;51.102;17.208;2023-04-01T08:15:21;4.80;;;2.13;;
40695;SDS011;40425;51.102;17.208;2023-04-01T08:20:34;2.92;;;1.40;;
40695;SDS011;40425;51.102;17.208;2023-04-01T08:26:09;6.82;;;2.53;;
40695;SDS011;40425;51.102;17.208;2023-04-01T08:31:29;4.85;;;1.50;;
40695;SDS011;40425;51.102;17.208;2023-04-01T08:36:32;6.78;;;2.10;;
40695;SDS011;40425;51.102;17.208;2023-04-01T08:52:35;3.15;;;1.40;;
40695;SDS011;40425;51.102;17.208;2023-04-01T09:03:18;3.22;;;1.63;;
40695;SDS011;40425;51.102;17.208;2023-04-01T09:14:07;2.17;;;1.23;;
40695;SDS011;40425;51.102;17.208;2023-04-01T09:19:15;4.63;;;1.35;;
40695;SDS011;40425;51.102;17.208;2023-04-01T09:31:07;3.80;;;1.70;;
40695;SDS011;40425;51.102;17.208;2023-04-01T09:46:03;4.60;;;1.17;;
40695;SDS011;40425;51.102;17.208;2023-04-01T10:01:57;4.45;;;1.38;;
40695;SDS011;40425;51.102;17.208;2023-04-01T10:18:30;2.90;;;1.40;;
40695;SDS011;40425;51.102;17.208;2023-04-01T10:52:00;1.67;;;0.40;;
40695;SDS011;40425;51.102;17.208;2023-04-01T11:31:00;1.35;;;0.68;;
40695;SDS011;40425;51.102;17.208;2023-04-01T11:36:21;1.60;;;0.70;;
40695;SDS011;40425;51.102;17.208;2023-04-01T12:13:25;2.03;;;0.20;;
40695;SDS011;40425;51.102;17.208;2023-04-01T12:18:47;0.82;;;0.30;;
40695;SDS011;40425;51.102;17.208;2023-04-01T12:40:20;1.00;;;0.30;;
40695;SDS011;40425;51.102;17.208;2023-04-01T12:45:54;0.82;;;0.43;;
40695;SDS011;40425;51.102;17.208;2023-04-01T13:01:59;1.10;;;0.20;;
40695;SDS011;40425;51.102;17.208;2023-04-01T13:07:10;0.32;;;0.20;;
40695;SDS011;40425;51.102;17.208;2023-04-01T13:28:26;0.63;;;0.10;;
40695;SDS011;40425;51.102;17.208;2023-04-01T13:39:15;0.32;;;0.10;;
40695;SDS011;40425;51.102;17.208;2023-04-01T13:44:31;0.55;;;0.17;;
40695;SDS011;40425;51.102;17.208;2023-04-01T13:49:55;2.05;;;0.28;;
40695;SDS011;40425;51.102;17.208;2023-04-01T14:17:00;2.22;;;1.10;;
40695;SDS011;40425;51.102;17.208;2023-04-01T14:27:29;2.30;;;0.50;;
40695;SDS011;40425;51.102;17.208;2023-04-01T14:38:28;2.55;;;0.40;;
40695;SDS011;40425;51.102;17.208;2023-04-01T14:49:14;1.77;;;0.40;;
40695;SDS011;40425;51.102;17.208;2023-04-01T14:54:35;2.20;;;0.70;;
40695;SDS011;40425;51.102;17.208;2023-04-01T15:00:13;1.23;;;0.50;;
40695;SDS011;40425;51.102;17.208;2023-04-01T15:05:27;3.07;;;1.03;;
40695;SDS011;40425;51.102;17.208;2023-04-01T19:00:39;49.40;;;30.33;;
40695;SDS011;40425;51.102;17.208;2023-04-01T19:05:46;46.90;;;30.87;;
40695;SDS011;40425;51.102;17.208;2023-04-01T19:10:59;54.60;;;32.40;;
40695;SDS011;40425;51.102;17.208;2023-04-01T19:21:44;51.47;;;29.17;;
40695;SDS011;40425;51.102;17.208;2023-04-01T19:37:44;49.27;;;31.23;;
40695;SDS011;40425;51.102;17.208;2023-04-01T19:48:08;51.93;;;31.87;;
40695;SDS011;40425;51.102;17.208;2023-04-01T19:59:01;52.88;;;32.38;;
40695;SDS011;40425;51.102;17.208;2023-04-01T20:04:53;50.53;;;32.13;;
40695;SDS011;40425;51.102;17.208;2023-04-01T20:15:22;51.15;;;32.90;;
40695;SDS011;40425;51.102;17.208;2023-04-01T20:20:34;55.07;;;35.03;;
40695;SDS011;40425;51.102;17.208;2023-04-01T20:41:26;52.73;;;35.80;;
40695;SDS011;40425;51.102;17.208;2023-04-01T20:51:38;54.57;;;35.57;;
40695;SDS011;40425;51.102;17.208;2023-04-01T20:57:05;59.23;;;37.37;;
40695;SDS011;40425;51.102;17.208;2023-04-01T21:08:27;62.70;;;39.50;;
40695;SDS011;40425;51.102;17.208;2023-04-01T21:18:16;65.60;;;41.80;;
40695;SDS011;40425;51.102;17.208;2023-04-01T21:23:42;72.10;;;41.20;;
40695;SDS011;40425;51.102;17.208;2023-04-01T21:29:13;71.00;;;45.23;;
40695;SDS011;40425;51.102;17.208;2023-04-01T21:34:37;73.73;;;44.47;;
40695;SDS011;40425;51.102;17.208;2023-04-01T21:51:19;72.13;;;40.33;;
40695;SDS011;40425;51.102;17.208;2023-04-01T21:56:33;72.93;;;44.50;;
40695;SDS011;40425;51.102;17.208;2023-04-01T22:07:21;72.03;;;42.73;;
40695;SDS011;40425;51.102;17.208;2023-04-01T22:17:51;67.77;;;43.07;;
40695;SDS011;40425;51.102;17.208;2023-04-01T22:44:15;66.33;;;43.03;;
40695;SDS011;40425;51.102;17.208;2023-04-01T22:49:26;53.53;;;38.13;;
40695;SDS011;40425;51.102;17.208;2023-04-01T22:59:54;56.03;;;35.97;;
40695;SDS011;40425;51.102;17.208;2023-04-01T23:05:11;62.57;;;37.40;;
40695;SDS011;40425;51.102;17.208;2023-04-01T23:10:17;60.07;;;38.00;;
40695;SDS011;40425;51.102;17.208;2023-04-01T23:15:28;57.90;;;35.63;;
40695;SDS011;40425;51.102;17.208;2023-04-01T23:25:35;55.57;;;36.40;;
40695;SDS011;40425;51.102;17.208;2023-04-01T23:40:53;40.73;;;27.27;;
40695;SDS011;40425;51.102;17.208;2023-04-01T23:45:55;36.60;;;27.00;;
40695;SDS011;40425;51.102;17.208;2023-04-01T23:50:57;38.17;;;26.40;;
40695;SDS011;40425;51.102;17.208;2023-04-01T23:55:58;39.90;;;27.47;;
